createdAt,value
2022-12-08T00:00:24.396Z,99739.84
2022-12-08T00:03:09.659Z,99739.84
2022-12-08T00:06:02.680Z,99740.81
2022-12-08T00:08:48.964Z,99750.75
2022-12-08T00:11:19.230Z,99753.59
2022-12-08T00:13:48.427Z,99755.44
2022-12-08T00:16:17.651Z,99760.84
2022-12-08T00:18:47.173Z,99761.84
2022-12-08T00:21:17.951Z,99764.66
2022-12-08T00:23:46.983Z,99763.81
2022-12-08T00:26:15.972Z,99758.41
2022-12-08T00:28:44.963Z,99763.81
2022-12-08T00:31:13.987Z,99761.22
2022-12-08T00:33:43.041Z,99766.75
2022-12-08T00:36:14.571Z,99764.06
2022-12-08T00:38:47.266Z,99770.31
2022-12-08T00:41:19.073Z,99774.00
2022-12-08T00:43:48.163Z,99781.28
2022-12-08T00:46:17.509Z,99783.09
2022-12-08T00:48:46.395Z,99784.94
2022-12-08T00:51:15.689Z,99777.72
2022-12-08T00:53:46.032Z,99783.25
2022-12-08T00:56:15.250Z,99787.78
2022-12-08T00:58:44.295Z,99788.75
2022-12-08T01:01:13.802Z,99793.31
2022-12-08T01:03:43.563Z,99797.00
2022-12-08T01:06:12.895Z,99799.69
2022-12-08T01:08:42.670Z,99796.13
2022-12-08T01:11:15.451Z,99800.66
2022-12-08T01:13:44.938Z,99806.06
2022-12-08T01:16:23.712Z,99815.19
2022-12-08T01:18:53.652Z,99816.88
2022-12-08T01:21:23.137Z,99815.19
2022-12-08T01:23:52.115Z,99819.72
2022-12-08T01:26:23.016Z,99818.03
2022-12-08T01:28:52.332Z,99824.25
2022-12-08T01:31:23.936Z,99819.13
2022-12-08T01:33:53.391Z,99830.78
2022-12-08T01:36:24.476Z,99828.94
2022-12-08T01:38:54.723Z,99825.50
2022-12-08T01:41:27.168Z,99825.50
2022-12-08T01:44:04.492Z,99830.06
2022-12-08T01:46:35.552Z,99821.09
2022-12-08T01:49:09.421Z,99813.94
2022-12-08T01:51:44.131Z,99822.06
2022-12-08T01:54:14.783Z,99817.66
2022-12-08T01:56:51.326Z,99824.75
2022-12-08T01:59:20.998Z,99833.88
2022-12-08T02:01:53.483Z,99832.13
2022-12-08T02:04:22.546Z,99840.22
2022-12-08T02:06:52.772Z,99842.94
2022-12-08T02:09:22.620Z,99837.66
2022-12-08T02:11:54.702Z,99837.81
2022-12-08T02:14:25.706Z,99843.22
2022-12-08T02:17:02.748Z,99842.22
2022-12-08T02:20:09.843Z,99840.50
2022-12-08T02:22:49.222Z,99835.09
2022-12-08T02:25:25.741Z,99840.50
2022-12-08T02:28:09.762Z,99844.31
2022-12-08T02:30:51.428Z,99845.16
2022-12-08T02:34:10.061Z,99846.00
2022-12-08T02:36:49.847Z,99852.41
2022-12-08T02:39:36.109Z,99851.53
2022-12-08T02:42:11.266Z,99849.84
2022-12-08T02:44:46.833Z,99850.81
2022-12-08T02:47:19.759Z,99850.81
2022-12-08T02:49:49.343Z,99855.25
2022-12-08T02:52:42.182Z,99859.88
2022-12-08T02:55:21.233Z,99856.34
2022-12-08T02:58:13.086Z,99858.19
2022-12-08T03:00:57.059Z,99856.44
2022-12-08T03:03:33.168Z,99858.19
2022-12-08T03:06:09.563Z,99860.88
2022-12-08T03:08:56.741Z,99856.44
2022-12-08T03:11:35.471Z,99859.28
2022-12-08T03:14:08.763Z,99860.16
2022-12-08T03:16:42.527Z,99850.31
2022-12-08T03:19:20.073Z,99847.63
2022-12-08T03:21:52.450Z,99855.72
2022-12-08T03:24:24.366Z,99857.69
2022-12-08T03:26:57.545Z,99864.94
2022-12-08T03:29:27.430Z,99863.09
2022-12-08T03:32:04.630Z,99868.63
2022-12-08T03:34:34.091Z,99871.31
2022-12-08T03:37:03.807Z,99868.63
2022-12-08T03:39:34.391Z,99875.03
2022-12-08T03:42:03.808Z,99871.44
2022-12-08T03:44:32.760Z,99870.59
2022-12-08T03:47:02.088Z,99876.84
2022-12-08T03:49:31.033Z,99875.03
2022-12-08T03:52:00.140Z,99875.13
2022-12-08T03:54:29.170Z,99886.78
2022-12-08T03:56:59.880Z,99880.50
2022-12-08T03:59:28.902Z,99877.81
2022-12-08T04:01:57.970Z,99878.81
2022-12-08T04:04:27.342Z,99879.78
2022-12-08T04:06:56.592Z,99877.09
2022-12-08T04:09:25.799Z,99883.47
2022-12-08T04:11:55.032Z,99885.31
2022-12-08T04:14:25.546Z,99889.72
2022-12-08T04:16:54.937Z,99897.81
2022-12-08T04:19:23.881Z,99885.31
2022-12-08T04:21:53.189Z,99895.25
2022-12-08T04:24:22.134Z,99895.25
2022-12-08T04:26:51.217Z,99892.56
2022-12-08T04:29:20.330Z,99897.81
2022-12-08T04:31:51.208Z,99901.50
2022-12-08T04:34:20.268Z,99904.22
2022-12-08T04:36:49.264Z,99902.47
2022-12-08T04:39:18.268Z,99898.94
2022-12-08T04:41:47.589Z,99903.47
2022-12-08T04:44:16.614Z,99916.13
2022-12-08T04:46:45.984Z,99910.72
2022-12-08T04:49:16.394Z,99917.94
2022-12-08T04:51:45.614Z,99918.81
2022-12-08T04:54:14.652Z,99919.69
2022-12-08T04:56:43.735Z,99920.78
2022-12-08T04:59:12.846Z,99921.66
2022-12-08T05:01:41.921Z,99915.38
2022-12-08T05:04:11.040Z,99919.03
2022-12-08T05:06:41.467Z,99926.19
2022-12-08T05:09:11.209Z,99919.91
2022-12-08T05:11:48.410Z,99916.25
2022-12-08T05:14:18.721Z,99922.63
2022-12-08T05:16:48.540Z,99922.75
2022-12-08T05:19:18.262Z,99922.63
2022-12-08T05:21:49.001Z,99925.44
2022-12-08T05:24:18.016Z,99933.53
2022-12-08T05:26:47.110Z,99932.69
2022-12-08T05:29:16.414Z,99940.78
2022-12-08T05:31:45.675Z,99937.22
2022-12-08T05:34:14.672Z,99941.78
2022-12-08T05:36:44.075Z,99941.78
2022-12-08T05:39:15.870Z,99945.44
2022-12-08T05:41:45.177Z,99940.03
2022-12-08T05:44:14.266Z,99943.75
2022-12-08T05:46:43.538Z,99948.28
2022-12-08T05:49:12.804Z,99950.84
2022-12-08T05:51:42.109Z,99949.13
2022-12-08T05:54:11.201Z,99958.06
2022-12-08T05:56:42.117Z,99957.34
2022-12-08T05:59:11.341Z,99962.72
2022-12-08T06:01:40.699Z,99966.44
2022-12-08T06:04:10.166Z,99968.13
2022-12-08T06:06:39.665Z,99970.84
2022-12-08T06:09:09.418Z,99973.66
2022-12-08T06:11:39.274Z,99974.53
2022-12-08T06:14:12.880Z,99969.25
2022-12-08T06:16:42.486Z,99979.19
2022-12-08T06:19:11.717Z,99982.00
2022-12-08T06:21:41.023Z,99991.81
2022-12-08T06:24:10.281Z,99984.59
2022-12-08T06:26:41.302Z,99980.06
2022-12-08T06:29:11.983Z,99989.13
2022-12-08T06:31:41.473Z,99987.38
2022-12-08T06:34:10.488Z,99982.84
2022-12-08T06:36:39.728Z,99985.69
2022-12-08T06:39:08.750Z,99986.41
2022-12-08T06:41:58.039Z,99994.53
2022-12-08T06:44:28.374Z,99992.78
2022-12-08T06:46:57.670Z,100003.50
2022-12-08T06:49:26.607Z,99996.34
2022-12-08T06:51:56.016Z,100011.69
2022-12-08T06:54:24.957Z,100006.19
2022-12-08T06:56:54.355Z,100010.72
2022-12-08T06:59:26.037Z,100010.84
2022-12-08T07:01:57.355Z,100008.41
2022-12-08T07:04:26.361Z,100014.03
2022-12-08T07:06:55.348Z,100025.09
2022-12-08T07:09:24.391Z,100023.47
2022-12-08T07:11:53.662Z,100023.59
2022-12-08T07:14:24.998Z,100026.31
2022-12-08T07:16:55.766Z,100034.41
2022-12-08T07:19:25.123Z,100038.06
2022-12-08T07:21:54.375Z,100033.53
2022-12-08T07:24:23.533Z,100044.47
2022-12-08T07:26:52.527Z,100046.16
2022-12-08T07:29:26.048Z,100041.75
2022-12-08T07:31:57.156Z,100044.47
2022-12-08T07:34:26.466Z,100049.00
2022-12-08T07:36:55.665Z,100047.16
2022-12-08T07:39:26.340Z,100049.88
2022-12-08T07:41:55.538Z,100059.78
2022-12-08T07:44:24.598Z,100063.22
2022-12-08T07:46:53.571Z,100064.19
2022-12-08T07:49:24.279Z,100055.25
2022-12-08T07:51:53.604Z,100067.75
2022-12-08T07:54:22.576Z,100066.91
2022-12-08T07:56:52.000Z,100072.28
2022-12-08T07:59:21.416Z,100079.44
2022-12-08T08:02:11.720Z,100080.31
2022-12-08T08:04:41.834Z,100082.00
2022-12-08T08:07:11.323Z,100081.13
2022-12-08T08:09:40.323Z,100082.00
2022-12-08T08:12:30.186Z,100080.31
2022-12-08T08:14:59.787Z,100077.47
2022-12-08T08:17:29.798Z,100074.78
2022-12-08T08:20:02.251Z,100071.00
2022-12-08T08:22:32.736Z,100071.00
2022-12-08T08:25:01.771Z,100070.13
2022-12-08T08:27:32.869Z,100080.78
2022-12-08T08:30:02.609Z,100080.69
2022-12-08T08:32:36.276Z,100089.63
2022-12-08T08:35:08.008Z,100089.63
2022-12-08T08:37:37.539Z,100095.03
2022-12-08T08:40:08.519Z,100103.13
2022-12-08T08:42:38.359Z,100107.69
2022-12-08T08:45:08.088Z,100111.25
2022-12-08T08:47:38.496Z,100112.09
2022-12-08T08:50:09.811Z,100119.34
2022-12-08T08:52:39.620Z,100123.03
2022-12-08T08:55:09.112Z,100124.75
2022-12-08T08:57:38.484Z,100129.31
2022-12-08T09:00:10.229Z,100128.56
2022-12-08T09:02:40.622Z,100139.22
2022-12-08T09:05:11.607Z,100132.97
2022-12-08T09:07:40.939Z,100141.94
2022-12-08T09:10:11.003Z,100135.78
2022-12-08T09:12:40.351Z,100133.97
2022-12-08T09:15:10.084Z,100131.25
2022-12-08T09:17:40.526Z,100130.38
2022-12-08T09:20:11.547Z,100137.50
2022-12-08T09:22:40.995Z,100130.25
2022-12-08T09:25:10.806Z,100117.75
2022-12-08T09:27:40.174Z,100122.16
2022-12-08T09:30:10.314Z,100120.47
2022-12-08T09:32:39.985Z,100112.22
2022-12-08T09:35:10.815Z,100117.63
2022-12-08T09:37:40.037Z,100119.34
2022-12-08T09:40:12.634Z,100107.69
2022-12-08T09:42:52.080Z,100102.31
2022-12-08T09:45:21.942Z,100107.56
2022-12-08T09:48:02.540Z,100104.00
2022-12-08T09:50:39.149Z,100100.34
2022-12-08T09:53:14.930Z,100089.53
2022-12-08T09:55:49.276Z,100090.38
2022-12-08T09:58:28.820Z,100087.69
2022-12-08T10:00:58.386Z,100079.56
2022-12-08T10:03:30.746Z,100086.72
2022-12-08T10:06:09.381Z,100081.31
2022-12-08T10:08:45.373Z,100083.03
2022-12-08T10:11:21.220Z,100076.78
2022-12-08T10:13:57.655Z,100088.41
2022-12-08T10:16:34.659Z,100074.81
2022-12-08T10:19:14.688Z,100084.75
2022-12-08T10:22:44.531Z,100090.16
2022-12-08T10:26:28.009Z,100085.63
2022-12-08T10:30:10.798Z,100076.53
2022-12-08T10:33:53.685Z,100063.91
2022-12-08T10:37:36.035Z,100066.59
2022-12-08T10:41:18.877Z,100077.41
2022-12-08T10:45:01.374Z,100071.03
2022-12-08T10:48:44.258Z,100070.03
2022-12-08T10:52:26.620Z,100057.41
2022-12-08T10:56:09.744Z,100060.97
2022-12-08T10:59:51.976Z,100065.38
2022-12-08T11:03:35.049Z,100059.03
2022-12-08T11:07:17.443Z,100070.66
2022-12-08T11:11:00.306Z,100065.16
2022-12-08T11:14:43.054Z,100060.72
2022-12-08T11:18:25.892Z,100061.59
2022-12-08T11:22:08.290Z,100051.53
2022-12-08T11:25:51.182Z,100050.66
2022-12-08T11:29:33.577Z,100044.28
2022-12-08T11:33:16.149Z,100046.00
2022-12-08T11:36:58.436Z,100037.91
2022-12-08T11:40:41.253Z,100033.38
2022-12-08T11:44:23.904Z,100035.09
2022-12-08T11:48:06.633Z,100030.66
2022-12-08T11:51:48.909Z,100035.94
2022-12-08T11:55:36.973Z,100034.97
2022-12-08T11:59:21.988Z,100036.69
2022-12-08T12:03:04.612Z,100036.69
2022-12-08T12:06:54.602Z,100027.59
2022-12-08T12:10:38.175Z,100023.06
2022-12-08T12:14:21.050Z,100019.38
2022-12-08T12:18:04.008Z,100014.84
2022-12-08T12:20:57.792Z,100016.53
2022-12-08T12:23:37.762Z,100016.53
2022-12-08T12:26:08.850Z,100002.06
2022-12-08T12:28:44.416Z,100002.06
2022-12-08T12:31:16.518Z,100005.50
2022-12-08T12:33:48.073Z,100002.81
2022-12-08T12:36:19.295Z,99999.16
2022-12-08T12:39:04.283Z,99998.16
2022-12-08T12:41:44.055Z,100003.56
2022-12-08T12:44:41.290Z,99992.63
2022-12-08T12:47:35.077Z,99991.78
2022-12-08T12:50:09.922Z,99988.09
2022-12-08T12:52:48.690Z,99998.03
2022-12-08T12:55:55.172Z,99995.22
2022-12-08T12:58:43.500Z,99980.84
2022-12-08T13:01:55.698Z,99993.25
2022-12-08T13:04:34.112Z,99989.56
2022-12-08T13:07:04.284Z,99985.03
2022-12-08T13:09:39.280Z,99988.59
2022-12-08T13:12:19.892Z,99985.88
2022-12-08T13:14:51.784Z,99984.88
2022-12-08T13:17:28.405Z,99989.31
2022-12-08T13:19:59.782Z,99984.88
2022-12-08T13:22:50.379Z,99983.06
2022-12-08T13:25:51.207Z,99992.03
2022-12-08T13:28:24.746Z,99991.03
2022-12-08T13:30:55.478Z,99990.94
2022-12-08T13:33:31.877Z,99997.31
2022-12-08T13:36:15.807Z,99984.66
2022-12-08T13:38:48.286Z,99997.16
2022-12-08T13:41:23.749Z,99992.63
2022-12-08T13:47:35.301Z,99997.91
2022-12-08T13:56:43.415Z,99987.97
2022-12-08T13:59:23.733Z,99986.13
2022-12-08T14:03:05.932Z,99983.44
2022-12-08T14:06:48.886Z,99987.88
2022-12-08T14:10:31.608Z,99987.00
2022-12-08T14:14:16.528Z,99979.75
2022-12-08T14:18:01.726Z,99982.47
2022-12-08T14:21:45.066Z,99975.19
2022-12-08T14:25:27.493Z,99976.06
2022-12-08T14:29:10.504Z,99984.16
2022-12-08T14:32:52.841Z,99972.50
2022-12-08T14:36:35.418Z,99967.94
2022-12-08T14:40:22.791Z,99954.44
2022-12-08T14:43:48.569Z,99957.16
2022-12-08T14:47:31.339Z,99964.28
2022-12-08T14:51:14.102Z,99965.13
2022-12-08T14:54:56.477Z,99969.69
2022-12-08T14:58:39.279Z,99966.00
2022-12-08T15:02:21.605Z,99963.91
2022-12-08T15:06:04.382Z,99966.72
2022-12-08T15:09:46.637Z,99965.47
2022-12-08T15:13:29.697Z,99962.31
2022-12-08T15:17:12.017Z,99967.47
2022-12-08T15:20:54.862Z,99973.59
2022-12-08T15:24:37.291Z,99963.06
2022-12-08T15:28:21.267Z,99958.16
2022-12-08T15:32:05.484Z,99955.22
2022-12-08T15:35:48.473Z,99941.56
2022-12-08T15:39:30.799Z,99945.88
2022-12-08T15:43:13.873Z,99938.50
2022-12-08T15:46:51.097Z,99942.78
2022-12-08T15:49:24.369Z,99931.97
2022-12-08T15:52:00.734Z,99935.53
2022-12-08T15:54:40.302Z,99930.00
2022-12-08T15:57:25.031Z,99932.72
2022-12-08T16:00:15.383Z,99927.16
2022-12-08T16:03:22.568Z,99928.88
2022-12-08T16:06:09.877Z,99925.19
2022-12-08T16:08:56.137Z,99926.06
2022-12-08T16:12:05.276Z,99921.53
2022-12-08T16:17:19.835Z,99919.56
2022-12-08T16:19:48.861Z,99915.84
2022-12-08T16:25:21.671Z,99909.56
2022-12-08T16:28:08.289Z,99908.75
2022-12-08T16:30:41.964Z,99905.03
2022-12-08T16:33:12.770Z,99902.19
2022-12-08T16:42:32.428Z,99909.88
2022-12-08T16:45:05.406Z,99909.00
2022-12-08T16:47:37.018Z,99899.31
2022-12-08T16:50:12.786Z,99897.25
2022-12-08T16:52:41.828Z,99899.94
2022-12-08T16:55:12.811Z,99905.06
2022-12-08T16:57:45.003Z,99895.78
2022-12-08T17:00:19.998Z,99894.34
2022-12-08T17:02:50.120Z,99897.34
2022-12-08T17:05:22.092Z,99895.75
2022-12-08T17:07:53.058Z,99896.72
2022-12-08T17:10:25.271Z,99897.66
2022-12-08T17:12:56.250Z,99895.13
2022-12-08T17:15:27.360Z,99894.28
2022-12-08T17:17:56.533Z,99892.59
2022-12-08T17:20:27.830Z,99904.00
2022-12-08T17:22:57.778Z,99901.41
2022-12-08T17:25:27.930Z,99901.47
2022-12-08T17:27:58.387Z,99902.31
2022-12-08T17:30:28.074Z,99903.16
2022-12-08T17:32:57.007Z,99904.94
2022-12-08T17:35:26.380Z,99903.13
2022-12-08T17:37:55.343Z,99900.53
2022-12-08T17:40:28.140Z,99902.31
2022-12-08T17:42:58.960Z,99898.78
2022-12-08T17:45:28.418Z,99899.63
2022-12-08T17:47:57.403Z,99900.41
2022-12-08T17:50:26.762Z,99893.47
2022-12-08T17:52:55.763Z,99902.19
2022-12-08T17:55:25.111Z,99904.00
2022-12-08T17:57:54.053Z,99902.28
2022-12-08T18:00:25.056Z,99907.44
2022-12-08T18:02:54.192Z,99909.16
2022-12-08T18:05:23.856Z,99896.88
2022-12-08T18:07:53.465Z,99903.00
2022-12-08T18:10:22.665Z,99915.28
2022-12-08T18:12:51.729Z,99918.81
2022-12-08T18:15:21.625Z,99910.91
2022-12-08T18:17:52.277Z,99917.03
2022-12-08T18:20:22.256Z,99904.00
2022-12-08T18:22:51.598Z,99904.84
2022-12-08T18:25:23.289Z,99914.50
2022-12-08T18:27:53.035Z,99914.53
2022-12-08T18:30:22.768Z,99920.72
2022-12-08T18:32:57.303Z,99929.50
2022-12-08T18:35:28.785Z,99926.00
2022-12-08T18:37:58.422Z,99925.19
2022-12-08T18:40:27.772Z,99930.47
2022-12-08T18:42:57.810Z,99933.97
2022-12-08T18:45:27.270Z,99932.19
2022-12-08T18:47:57.670Z,99921.72
2022-12-08T18:50:27.032Z,99935.78
2022-12-08T18:52:56.247Z,99933.13
2022-12-08T18:55:25.630Z,99941.94
2022-12-08T18:57:54.637Z,99940.19
2022-12-08T19:00:24.130Z,99933.22
2022-12-08T19:02:53.125Z,99931.44
2022-12-08T19:05:24.800Z,99939.31
2022-12-08T19:07:54.007Z,99945.47
2022-12-08T19:10:23.271Z,99944.63
2022-12-08T19:12:52.986Z,99940.28
2022-12-08T19:15:22.255Z,99947.31
2022-12-08T19:17:51.171Z,99942.06
2022-12-08T19:20:22.099Z,99942.97
2022-12-08T19:22:51.602Z,99953.47
2022-12-08T19:25:21.687Z,99955.25
2022-12-08T19:27:53.139Z,99954.41
2022-12-08T19:30:22.801Z,99964.91
2022-12-08T19:32:52.159Z,99960.50
2022-12-08T19:35:22.774Z,99964.00
2022-12-08T19:37:53.729Z,99968.41
2022-12-08T19:40:55.495Z,99966.59
2022-12-08T19:43:38.383Z,99973.66
2022-12-08T19:46:08.426Z,99973.66
2022-12-08T19:48:37.501Z,99979.81
2022-12-08T19:51:08.218Z,99978.09
2022-12-08T19:53:37.668Z,99973.63
2022-12-08T19:56:07.499Z,99979.91
2022-12-08T19:58:36.551Z,99981.63
2022-12-08T20:01:06.082Z,99977.28
2022-12-08T20:03:35.274Z,99985.25
2022-12-08T20:06:04.678Z,99980.00
2022-12-08T20:08:35.086Z,99983.59
2022-12-08T20:11:04.405Z,99983.75
2022-12-08T20:13:43.839Z,99990.97
2022-12-08T20:16:13.786Z,99994.44
2022-12-08T20:18:44.272Z,99990.09
2022-12-08T20:21:14.366Z,99984.06
2022-12-08T20:23:45.608Z,99990.28
2022-12-08T20:26:15.404Z,99987.91
2022-12-08T20:28:44.537Z,99990.66
2022-12-08T20:31:20.020Z,99990.72
2022-12-08T20:33:50.087Z,99995.19
2022-12-08T20:36:21.751Z,100004.00
2022-12-08T20:38:53.914Z,100007.66
2022-12-08T20:41:24.580Z,100017.28
2022-12-08T20:43:54.273Z,100012.06
2022-12-08T20:46:23.598Z,100006.00
2022-12-08T20:48:52.773Z,100012.91
2022-12-08T20:51:25.674Z,100015.69
2022-12-08T20:53:59.562Z,100018.31
2022-12-08T20:56:31.339Z,100019.19
2022-12-08T20:59:00.818Z,100019.19
2022-12-08T21:01:30.302Z,100023.59
2022-12-08T21:03:59.770Z,100032.41
2022-12-08T21:06:29.123Z,100043.66
2022-12-08T21:08:59.700Z,100054.16
2022-12-08T21:11:29.488Z,100056.81
2022-12-08T21:13:58.514Z,100060.28
2022-12-08T21:16:27.888Z,100056.75
2022-12-08T21:18:57.092Z,100054.97
2022-12-08T21:21:26.521Z,100063.75
2022-12-08T21:23:55.870Z,100075.13
2022-12-08T21:26:26.961Z,100070.66
2022-12-08T21:28:58.527Z,100075.03
2022-12-08T21:31:29.389Z,100078.56
2022-12-08T21:33:59.144Z,100091.72
2022-12-08T21:36:28.958Z,100087.28
2022-12-08T21:39:01.121Z,100089.06
2022-12-08T21:42:01.293Z,100091.69
2022-12-08T21:44:30.456Z,100091.66
2022-12-08T21:46:59.963Z,100088.16
2022-12-08T21:49:29.488Z,100084.63
2022-12-08T21:51:59.171Z,100087.19
2022-12-08T21:54:28.710Z,100092.44
2022-12-08T21:56:59.715Z,100088.03
2022-12-08T21:59:28.834Z,100095.06
2022-12-08T22:01:58.140Z,100095.06
2022-12-08T22:04:27.530Z,100087.09
2022-12-08T22:06:57.101Z,100085.41
2022-12-08T22:09:26.305Z,100087.09
2022-12-08T22:11:56.406Z,100078.38
2022-12-08T22:14:27.010Z,100083.59
2022-12-08T22:16:56.429Z,100091.50
2022-12-08T22:19:25.677Z,100100.38
2022-12-08T22:21:55.102Z,100089.88
2022-12-08T22:24:24.232Z,100103.00
2022-12-08T22:26:53.662Z,100103.06
2022-12-08T22:29:23.045Z,100104.91
2022-12-08T22:31:53.726Z,100115.47
2022-12-08T22:34:22.874Z,100108.50
2022-12-08T22:36:52.358Z,100111.13
2022-12-08T22:39:21.454Z,100114.66
2022-12-08T22:41:50.708Z,100128.72
2022-12-08T22:44:20.135Z,100120.00
2022-12-08T22:46:49.560Z,100121.84
2022-12-08T22:49:20.073Z,100123.72
2022-12-08T22:51:49.475Z,100130.75
2022-12-08T22:54:18.699Z,100129.00
2022-12-08T22:56:48.217Z,100136.03
2022-12-08T22:59:17.509Z,100141.28
2022-12-08T23:01:46.818Z,100141.31
2022-12-08T23:04:18.042Z,100140.44
2022-12-08T23:06:49.332Z,100142.28
2022-12-08T23:09:18.747Z,100131.81
2022-12-08T23:11:48.050Z,100137.97
2022-12-08T23:14:17.263Z,100138.84
2022-12-08T23:16:46.656Z,100142.38
2022-12-08T23:19:15.898Z,100159.88
2022-12-08T23:21:45.236Z,100149.41
2022-12-08T23:24:15.893Z,100145.03
2022-12-08T23:26:45.454Z,100147.72
2022-12-08T23:29:14.844Z,100141.59
2022-12-08T23:31:44.231Z,100149.41
2022-12-08T23:34:13.404Z,100152.94
2022-12-08T23:36:42.873Z,100162.63
2022-12-08T23:39:14.225Z,100152.16
2022-12-08T23:41:43.721Z,100155.63
2022-12-08T23:44:13.083Z,100146.91
2022-12-08T23:46:42.398Z,100156.56
2022-12-08T23:49:11.926Z,100160.94
2022-12-08T23:51:41.429Z,100162.69
2022-12-08T23:54:10.667Z,100167.03
2022-12-08T23:56:41.317Z,100172.31
2022-12-08T23:59:11.192Z,100168.81
